createdAt,value
2022-11-16T00:00:32.043Z,97473.19
2022-11-16T00:03:03.573Z,97477.63
2022-11-16T00:05:31.954Z,97487.84
2022-11-16T00:08:00.114Z,97486.72
2022-11-16T00:10:29.720Z,97481.66
2022-11-16T00:12:57.939Z,97469.53
2022-11-16T00:15:27.013Z,97475.66
2022-11-16T00:17:55.117Z,97486.31
2022-11-16T00:20:23.352Z,97464.91
2022-11-16T00:22:51.494Z,97468.25
2022-11-16T00:25:19.684Z,97468.59
2022-11-16T00:27:52.198Z,97472.53
2022-11-16T00:30:20.437Z,97461.38
2022-11-16T00:32:48.566Z,97466.28
2022-11-16T00:35:16.880Z,97470.69
2022-11-16T00:37:45.090Z,97464.63
2022-11-16T00:40:14.070Z,97468.03
2022-11-16T00:42:42.261Z,97444.72
2022-11-16T00:45:12.906Z,97432.03
2022-11-16T00:47:41.114Z,97463.59
2022-11-16T00:50:09.722Z,97469.47
2022-11-16T00:52:37.853Z,97465.47
2022-11-16T00:55:06.670Z,97478.69
2022-11-16T00:57:36.411Z,97486.50
2022-11-16T01:00:05.094Z,97477.34
2022-11-16T01:02:34.826Z,97492.47
2022-11-16T01:05:02.967Z,97462.34
2022-11-16T01:07:31.275Z,97495.28
2022-11-16T01:09:59.463Z,97522.59
2022-11-16T01:12:26.559Z,97528.03
2022-11-16T01:14:54.919Z,97522.09
2022-11-16T01:17:23.169Z,97504.66
2022-11-16T01:19:52.914Z,97517.00
2022-11-16T01:22:21.066Z,97521.25
2022-11-16T01:24:49.621Z,97499.75
2022-11-16T01:27:17.813Z,97512.59
2022-11-16T01:29:46.047Z,97518.75
2022-11-16T01:32:14.141Z,97509.25
2022-11-16T01:34:42.252Z,97484.41
2022-11-16T01:37:11.829Z,97497.41
2022-11-16T01:39:40.012Z,97512.41
2022-11-16T01:42:08.138Z,97509.03
2022-11-16T01:45:00.309Z,97523.06
2022-11-16T01:47:28.900Z,97541.09
2022-11-16T01:50:02.697Z,97526.13
2022-11-16T01:52:33.954Z,97519.34
2022-11-16T01:55:03.500Z,97508.03
2022-11-16T01:57:35.446Z,97532.19
2022-11-16T02:00:06.862Z,97530.38
2022-11-16T02:02:35.021Z,97503.50
2022-11-16T02:05:04.450Z,97505.13
2022-11-16T02:08:00.180Z,97556.16
2022-11-16T02:10:46.383Z,97534.66
2022-11-16T02:13:27.796Z,97553.41
2022-11-16T02:16:05.340Z,97550.44
2022-11-16T02:18:39.595Z,97558.28
2022-11-16T02:21:34.347Z,97561.72
2022-11-16T02:24:22.289Z,97558.19
2022-11-16T02:27:31.799Z,97547.34
2022-11-16T02:30:01.954Z,97542.69
2022-11-16T02:32:35.317Z,97540.13
2022-11-16T02:35:09.648Z,97547.13
2022-11-16T02:37:42.194Z,97547.03
2022-11-16T02:40:14.340Z,97557.53
2022-11-16T02:42:46.537Z,97557.34
2022-11-16T02:45:20.663Z,97565.28
2022-11-16T02:47:51.909Z,97568.41
2022-11-16T02:50:23.450Z,97567.00
2022-11-16T02:52:51.579Z,97570.38
2022-11-16T02:55:19.791Z,97565.50
2022-11-16T02:57:52.857Z,97572.78
2022-11-16T03:00:26.056Z,97571.50
2022-11-16T03:03:08.518Z,97561.69
2022-11-16T03:05:40.353Z,97564.25
2022-11-16T03:08:16.786Z,97570.81
2022-11-16T03:11:06.206Z,97572.59
2022-11-16T03:13:37.074Z,97579.06
2022-11-16T03:16:11.551Z,97572.22
2022-11-16T03:18:41.867Z,97576.28
2022-11-16T03:21:16.342Z,97579.06
2022-11-16T03:23:46.430Z,97576.59
2022-11-16T03:26:20.039Z,97561.19
2022-11-16T03:28:53.531Z,97558.28
2022-11-16T03:31:29.345Z,97571.97
2022-11-16T03:34:00.473Z,97560.56
2022-11-16T03:36:32.457Z,97572.13
2022-11-16T03:39:06.512Z,97564.28
2022-11-16T03:41:37.924Z,97565.38
2022-11-16T03:44:07.396Z,97564.25
2022-11-16T03:46:36.828Z,97562.44
2022-11-16T03:49:04.820Z,97558.34
2022-11-16T03:51:32.913Z,97559.50
2022-11-16T03:54:01.054Z,97565.38
2022-11-16T03:56:29.190Z,97548.66
2022-11-16T03:58:57.891Z,97567.09
2022-11-16T04:01:26.121Z,97539.75
2022-11-16T04:03:55.710Z,97568.78
2022-11-16T04:06:41.036Z,97557.47
2022-11-16T04:09:27.748Z,97551.91
2022-11-16T04:12:24.965Z,97552.06
2022-11-16T04:15:10.389Z,97565.19
2022-11-16T04:17:55.687Z,97557.81
2022-11-16T04:20:42.583Z,97559.38
2022-11-16T04:23:33.415Z,97570.19
2022-11-16T04:26:01.725Z,97556.59
2022-11-16T04:28:31.252Z,97567.47
2022-11-16T04:31:19.518Z,97569.06
2022-11-16T04:34:05.036Z,97563.97
2022-11-16T04:36:51.829Z,97575.81
2022-11-16T04:39:19.862Z,97568.69
2022-11-16T04:42:05.228Z,97575.22
2022-11-16T04:44:50.175Z,97579.31
2022-11-16T04:47:18.293Z,97571.19
2022-11-16T04:49:46.445Z,97547.38
2022-11-16T04:52:15.983Z,97549.75
2022-11-16T04:54:44.154Z,97547.69
2022-11-16T04:57:12.306Z,97559.00
2022-11-16T04:59:40.445Z,97563.09
2022-11-16T05:02:11.389Z,97541.88
2022-11-16T05:04:41.223Z,97566.16
2022-11-16T05:07:11.390Z,97556.78
2022-11-16T05:09:43.275Z,97579.50
2022-11-16T05:12:11.971Z,97570.72
2022-11-16T05:14:40.226Z,97574.16
2022-11-16T05:17:08.507Z,97573.31
2022-11-16T05:19:53.902Z,97584.53
2022-11-16T05:22:22.033Z,97557.78
2022-11-16T05:24:50.646Z,97561.78
2022-11-16T05:27:20.951Z,97580.81
2022-11-16T05:29:49.765Z,97565.06
2022-11-16T05:32:19.105Z,97578.38
2022-11-16T05:34:47.662Z,97584.47
2022-11-16T05:37:16.586Z,97583.69
2022-11-16T05:39:44.912Z,97585.50
2022-11-16T05:42:15.148Z,97589.31
2022-11-16T05:44:43.308Z,97585.69
2022-11-16T05:47:11.569Z,97603.41
2022-11-16T05:49:39.768Z,97610.84
2022-11-16T05:52:07.858Z,97603.22
2022-11-16T05:54:36.408Z,97607.00
2022-11-16T05:57:04.734Z,97597.47
2022-11-16T05:59:34.297Z,97607.56
2022-11-16T06:02:04.082Z,97596.75
2022-11-16T06:04:32.373Z,97597.47
2022-11-16T06:07:00.622Z,97582.97
2022-11-16T06:09:28.883Z,97617.25
2022-11-16T06:11:56.968Z,97590.88
2022-11-16T06:14:25.259Z,97580.56
2022-11-16T06:16:54.867Z,97609.84
2022-11-16T06:19:25.973Z,97618.81
2022-11-16T06:21:56.470Z,97590.53
2022-11-16T06:24:24.688Z,97627.38
2022-11-16T06:26:52.870Z,97619.97
2022-11-16T06:29:21.124Z,97610.91
2022-11-16T06:31:49.334Z,97607.75
2022-11-16T06:34:18.994Z,97613.75
2022-11-16T06:36:47.180Z,97615.00
2022-11-16T06:39:15.599Z,97619.06
2022-11-16T06:41:43.762Z,97629.69
2022-11-16T06:44:11.984Z,97633.03
2022-11-16T06:46:40.071Z,97622.44
2022-11-16T06:49:08.406Z,97631.91
2022-11-16T06:51:38.136Z,97634.06
2022-11-16T06:54:06.991Z,97639.94
2022-11-16T06:56:35.745Z,97650.69
2022-11-16T06:59:03.921Z,97658.22
2022-11-16T07:01:32.156Z,97641.75
2022-11-16T07:04:00.313Z,97642.47
2022-11-16T07:06:29.151Z,97665.75
2022-11-16T07:08:58.881Z,97655.56
2022-11-16T07:11:26.992Z,97622.38
2022-11-16T07:13:55.086Z,97676.66
2022-11-16T07:16:23.382Z,97663.00
2022-11-16T07:18:51.499Z,97665.34
2022-11-16T07:21:20.244Z,97664.53
2022-11-16T07:23:48.377Z,97685.19
2022-11-16T07:26:18.077Z,97683.94
2022-11-16T07:28:48.351Z,97693.16
2022-11-16T07:31:17.319Z,97682.69
2022-11-16T07:33:45.955Z,97681.44
2022-11-16T07:36:15.961Z,97688.44
2022-11-16T07:38:44.189Z,97676.69
2022-11-16T07:41:13.844Z,97690.50
2022-11-16T07:43:46.112Z,97669.84
2022-11-16T07:46:45.143Z,97682.97
2022-11-16T07:49:11.263Z,97688.81
2022-11-16T07:51:39.733Z,97693.41
2022-11-16T07:54:07.821Z,97669.94
2022-11-16T07:56:35.880Z,97673.56
2022-11-16T07:59:06.129Z,97688.63
2022-11-16T08:01:34.394Z,97685.84
2022-11-16T08:04:03.005Z,97647.31
2022-11-16T08:06:32.620Z,97691.31
2022-11-16T08:09:00.940Z,97657.13
2022-11-16T08:11:29.072Z,97690.84
2022-11-16T08:13:57.124Z,97663.69
2022-11-16T08:16:26.572Z,97656.84
2022-11-16T08:18:54.568Z,97667.91
2022-11-16T08:21:22.609Z,97678.41
2022-11-16T08:23:55.259Z,97655.34
2022-11-16T08:26:26.382Z,97680.47
2022-11-16T08:28:56.542Z,97686.63
2022-11-16T08:31:28.225Z,97685.03
2022-11-16T08:33:56.708Z,97685.19
2022-11-16T08:36:25.127Z,97670.28
2022-11-16T08:38:54.134Z,97705.75
2022-11-16T08:41:22.940Z,97699.91
2022-11-16T08:43:53.515Z,97699.91
2022-11-16T08:46:21.998Z,97707.50
2022-11-16T08:48:55.747Z,97706.94
2022-11-16T08:51:24.623Z,97694.88
2022-11-16T08:53:57.131Z,97684.41
2022-11-16T08:56:27.481Z,97713.00
2022-11-16T08:58:58.928Z,97710.19
2022-11-16T09:01:29.149Z,97661.09
2022-11-16T09:03:58.819Z,97693.78
2022-11-16T09:06:28.656Z,97657.13
2022-11-16T09:08:57.279Z,97617.19
2022-11-16T09:11:27.952Z,97619.41
2022-11-16T09:13:57.216Z,97629.47
2022-11-16T09:50:41.103Z,97705.91
2022-11-16T09:54:02.861Z,97690.66
2022-11-16T09:56:42.987Z,97618.69
2022-11-16T09:59:22.967Z,97624.09
2022-11-16T10:02:20.593Z,97621.06
2022-11-16T10:04:58.189Z,97627.44
2022-11-16T10:07:34.657Z,97619.09
2022-11-16T10:10:03.056Z,97673.66
2022-11-16T10:15:36.015Z,97662.91
2022-11-16T10:18:14.566Z,97585.72
2022-11-16T10:20:55.757Z,97675.75
2022-11-16T10:23:37.101Z,97652.81
2022-11-16T10:29:00.236Z,97683.91
2022-11-16T10:31:41.619Z,97683.22
2022-11-16T10:34:17.681Z,97671.31
2022-11-16T10:36:46.890Z,97679.88
2022-11-16T10:39:20.545Z,97602.63
2022-11-16T10:41:56.181Z,97623.13
2022-11-16T10:44:31.859Z,97598.91
2022-11-16T10:47:06.216Z,97660.88
2022-11-16T10:49:41.273Z,97656.47
2022-11-16T10:52:09.322Z,97642.16
2022-11-16T10:54:42.973Z,97629.09
2022-11-16T10:57:14.535Z,97655.44
2022-11-16T10:59:44.869Z,97659.25
2022-11-16T11:02:49.319Z,97653.66
2022-11-16T11:05:20.363Z,97651.38
2022-11-16T11:07:56.811Z,97629.00
2022-11-16T11:10:31.469Z,97647.72
2022-11-16T11:13:18.910Z,97647.72
2022-11-16T11:15:48.132Z,97631.34
2022-11-16T11:18:26.059Z,97640.28
2022-11-16T11:21:07.368Z,97636.66
2022-11-16T11:23:43.987Z,97614.38
2022-11-16T11:26:36.201Z,97615.34
2022-11-16T11:29:17.894Z,97603.44
2022-11-16T11:31:50.135Z,97626.13
2022-11-16T11:34:22.127Z,97626.31
2022-11-16T11:36:54.095Z,97617.59
2022-11-16T11:39:34.409Z,97615.53
2022-11-16T11:42:07.714Z,97591.19
2022-11-16T11:44:49.365Z,97617.47
2022-11-16T11:47:58.971Z,97618.97
2022-11-16T11:50:37.494Z,97609.47
2022-11-16T11:53:09.349Z,97610.16
2022-11-16T11:55:37.651Z,97548.22
2022-11-16T11:58:12.685Z,97602.16
2022-11-16T12:00:49.453Z,97600.41
2022-11-16T12:03:44.345Z,97591.97
2022-11-16T12:06:20.757Z,97597.00
2022-11-16T12:09:03.982Z,97587.09
2022-11-16T12:11:54.100Z,97583.97
2022-11-16T12:14:35.247Z,97579.59
2022-11-16T12:17:11.409Z,97577.78
2022-11-16T12:20:01.461Z,97571.66
2022-11-16T12:22:47.199Z,97567.81
2022-11-16T12:25:25.076Z,97563.09
2022-11-16T12:28:10.317Z,97561.53
2022-11-16T12:30:52.746Z,97571.75
2022-11-16T12:33:30.434Z,97571.13
2022-11-16T12:36:04.903Z,97568.66
2022-11-16T12:38:50.838Z,97569.19
2022-11-16T12:41:38.832Z,97561.03
2022-11-16T12:44:11.303Z,97547.16
2022-11-16T12:46:52.779Z,97537.31
2022-11-16T12:49:53.242Z,97541.84
2022-11-16T12:52:38.605Z,97528.84
2022-11-16T12:55:26.454Z,97527.31
2022-11-16T12:58:08.711Z,97510.44
2022-11-16T13:00:51.609Z,97510.03
2022-11-16T13:03:27.776Z,97503.78
2022-11-16T13:06:01.455Z,97457.22
2022-11-16T13:08:48.448Z,97441.34
2022-11-16T13:11:21.759Z,97484.50
2022-11-16T13:13:54.259Z,97470.72
2022-11-16T13:16:23.993Z,97485.97
2022-11-16T13:18:54.556Z,97469.34
2022-11-16T13:21:32.277Z,97487.06
2022-11-16T13:24:24.339Z,97498.88
2022-11-16T13:26:57.596Z,97481.00
2022-11-16T13:29:34.899Z,97490.41
2022-11-16T13:32:10.105Z,97489.00
2022-11-16T13:34:41.377Z,97478.72
2022-11-16T13:37:42.903Z,97477.34
2022-11-16T13:40:23.432Z,97480.75
2022-11-16T13:43:23.759Z,97480.88
2022-11-16T13:45:59.449Z,97484.50
2022-11-16T13:48:33.716Z,97463.84
2022-11-16T13:51:06.178Z,97476.31
2022-11-16T13:54:37.757Z,97458.75
2022-11-16T13:56:29.433Z,97430.28
2022-11-16T13:58:59.234Z,97460.25
2022-11-16T14:01:47.316Z,97461.31
2022-11-16T14:04:41.368Z,97459.75
2022-11-16T14:07:33.709Z,97464.66
2022-11-16T14:10:02.111Z,97444.84
2022-11-16T14:13:00.663Z,97460.06
2022-11-16T14:15:31.914Z,97462.56
2022-11-16T14:18:16.453Z,97462.06
2022-11-16T14:20:57.236Z,97451.72
2022-11-16T14:23:45.495Z,97448.38
2022-11-16T14:26:23.624Z,97455.09
2022-11-16T14:29:20.204Z,97451.41
2022-11-16T14:31:52.334Z,97433.44
2022-11-16T14:34:23.591Z,97434.75
2022-11-16T14:36:52.200Z,97421.13
2022-11-16T14:39:32.379Z,97420.97
2022-11-16T14:42:04.421Z,97432.94
2022-11-16T14:44:39.027Z,97425.94
2022-11-16T14:47:17.211Z,97415.97
2022-11-16T14:49:47.869Z,97418.47
2022-11-16T14:52:18.680Z,97381.50
2022-11-16T14:54:53.731Z,97406.31
2022-11-16T14:57:23.999Z,97408.13
2022-11-16T15:00:08.949Z,97415.44
2022-11-16T15:02:37.905Z,97422.97
2022-11-16T15:05:06.923Z,97410.78
2022-11-16T15:07:35.110Z,97406.31
2022-11-16T15:10:05.122Z,97364.59
2022-11-16T15:12:45.931Z,97402.59
2022-11-16T15:15:17.536Z,97419.03
2022-11-16T15:17:48.121Z,97413.03
2022-11-16T15:20:19.806Z,97404.03
2022-11-16T15:22:51.666Z,97415.00
2022-11-16T15:25:29.657Z,97401.50
2022-11-16T15:27:59.438Z,97398.78
2022-11-16T15:30:29.498Z,97380.28
2022-11-16T15:32:58.236Z,97369.19
2022-11-16T15:35:29.915Z,97372.19
2022-11-16T15:38:05.945Z,97374.50
2022-11-16T15:40:36.254Z,97376.47
2022-11-16T15:43:07.008Z,97360.97
2022-11-16T15:45:35.592Z,97377.81
2022-11-16T15:48:05.009Z,97319.25
2022-11-16T15:50:33.242Z,97350.75
2022-11-16T15:53:01.241Z,97369.09
2022-11-16T15:55:38.804Z,97364.38
2022-11-16T15:58:14.526Z,97351.22
2022-11-16T16:00:43.288Z,97354.59
2022-11-16T16:03:21.551Z,97349.28
2022-11-16T16:05:50.050Z,97280.84
2022-11-16T16:08:39.453Z,97334.56
2022-11-16T16:11:11.809Z,97301.81
2022-11-16T16:13:41.670Z,97337.44
2022-11-16T16:16:21.137Z,97341.25
2022-11-16T16:18:49.846Z,97348.03
2022-11-16T16:21:18.414Z,97348.50
2022-11-16T16:23:47.685Z,97345.25
2022-11-16T16:26:18.093Z,97336.84
2022-11-16T16:28:46.622Z,97323.06
2022-11-16T16:31:15.686Z,97346.28
2022-11-16T16:33:43.701Z,97332.66
2022-11-16T16:36:13.763Z,97322.13
2022-11-16T16:38:41.805Z,97327.13
2022-11-16T16:41:24.287Z,97330.34
2022-11-16T16:43:54.229Z,97323.44
2022-11-16T16:46:22.353Z,97313.66
2022-11-16T16:48:50.325Z,97325.66
2022-11-16T16:51:18.344Z,97317.63
2022-11-16T16:53:46.383Z,97330.38
2022-11-16T16:56:16.347Z,97325.66
2022-11-16T16:58:44.320Z,97339.63
2022-11-16T17:01:14.312Z,97331.59
2022-11-16T17:03:42.410Z,97278.28
2022-11-16T17:06:10.668Z,97329.78
2022-11-16T17:08:39.420Z,97282.31
2022-11-16T17:11:07.531Z,97343.34
2022-11-16T17:13:35.868Z,97343.34
2022-11-16T17:16:06.221Z,97289.41
2022-11-16T17:18:35.797Z,97263.13
2022-11-16T17:21:08.258Z,97323.56
2022-11-16T17:23:37.417Z,97318.72
2022-11-16T17:26:06.364Z,97271.88
2022-11-16T17:28:34.912Z,97291.94
2022-11-16T17:31:03.565Z,97291.47
2022-11-16T17:33:36.146Z,97263.31
2022-11-16T17:36:05.329Z,97270.13
2022-11-16T17:38:33.902Z,97271.66
2022-11-16T17:41:06.793Z,97270.38
2022-11-16T17:43:35.534Z,97260.47
2022-11-16T17:46:08.238Z,97243.63
2022-11-16T17:48:38.725Z,97243.75
2022-11-16T17:51:07.271Z,97206.03
2022-11-16T17:53:36.302Z,97232.25
2022-11-16T17:56:05.469Z,97226.97
2022-11-16T17:58:34.058Z,97218.00
2022-11-16T18:01:02.183Z,97200.53
2022-11-16T18:03:30.355Z,97200.34
2022-11-16T18:06:07.496Z,97209.94
2022-11-16T18:08:36.671Z,97198.19
2022-11-16T18:11:06.471Z,97190.81
2022-11-16T18:13:35.757Z,97164.97
2022-11-16T18:16:05.649Z,97166.06
2022-11-16T18:18:34.098Z,97167.47
2022-11-16T18:21:02.773Z,97119.06
2022-11-16T18:23:34.085Z,97162.72
2022-11-16T18:26:03.470Z,97141.38
2022-11-16T18:28:31.492Z,97141.59
2022-11-16T18:31:04.465Z,97144.03
2022-11-16T18:33:33.601Z,97153.28
2022-11-16T18:36:01.947Z,97146.22
2022-11-16T18:38:31.371Z,97155.25
2022-11-16T18:41:07.827Z,97162.31
2022-11-16T18:43:36.266Z,97169.31
2022-11-16T18:46:04.691Z,97167.88
2022-11-16T18:48:32.766Z,97165.94
2022-11-16T18:51:01.207Z,97171.94
2022-11-16T18:53:30.318Z,97175.56
2022-11-16T18:55:59.961Z,97183.38
2022-11-16T18:58:49.786Z,97201.47
2022-11-16T19:01:19.267Z,97186.56
2022-11-16T19:03:47.413Z,97182.31
2022-11-16T19:06:17.864Z,97163.41
2022-11-16T19:08:51.839Z,97154.34
2022-11-16T19:11:25.542Z,97115.91
2022-11-16T19:13:55.585Z,97124.81
2022-11-16T19:16:25.150Z,97115.75
2022-11-16T19:18:53.726Z,97123.63
2022-11-16T19:21:23.101Z,97123.31
2022-11-16T19:23:52.966Z,97109.81
2022-11-16T19:26:27.944Z,97100.50
2022-11-16T19:28:56.290Z,97091.63
2022-11-16T19:31:26.022Z,97089.56
2022-11-16T19:33:57.920Z,97092.84
2022-11-16T19:36:27.031Z,97090.50
2022-11-16T19:38:55.486Z,97095.97
2022-11-16T19:41:23.973Z,97104.66
2022-11-16T19:43:57.406Z,97111.63
2022-11-16T19:46:26.304Z,97099.38
2022-11-16T19:48:54.673Z,97081.13
2022-11-16T19:51:24.797Z,97118.97
2022-11-16T19:53:52.883Z,97112.50
2022-11-16T19:56:22.501Z,97118.16
2022-11-16T19:58:50.919Z,97115.88
2022-11-16T20:01:22.271Z,97101.66
2022-11-16T20:03:51.021Z,97113.09
2022-11-16T20:06:21.019Z,97113.81
2022-11-16T20:08:50.995Z,97101.97
2022-11-16T20:11:20.868Z,97117.78
2022-11-16T20:13:49.389Z,97116.38
2022-11-16T20:16:18.905Z,97112.63
2022-11-16T20:18:48.504Z,97109.16
2022-11-16T20:21:22.666Z,97117.44
2022-11-16T20:23:51.678Z,97088.69
2022-11-16T20:26:21.280Z,97100.28
2022-11-16T20:28:52.595Z,97095.81
2022-11-16T20:31:22.523Z,97094.56
2022-11-16T20:33:57.853Z,97050.44
2022-11-16T20:36:30.267Z,97079.25
2022-11-16T20:39:02.455Z,97118.53
2022-11-16T20:41:34.649Z,97067.41
2022-11-16T20:44:03.476Z,97123.84
2022-11-16T20:46:34.845Z,97124.19
2022-11-16T20:49:04.390Z,97091.72
2022-11-16T20:51:33.987Z,97108.81
2022-11-16T20:54:05.893Z,97116.00
2022-11-16T20:56:35.206Z,97086.25
2022-11-16T20:59:06.546Z,97108.78
2022-11-16T21:01:34.821Z,97113.91
2022-11-16T21:04:07.998Z,97114.56
2022-11-16T21:06:36.118Z,97106.00
2022-11-16T21:09:05.463Z,97103.66
2022-11-16T21:11:56.227Z,97096.78
2022-11-16T21:14:23.911Z,97106.28
2022-11-16T21:16:53.745Z,97062.94
2022-11-16T21:19:23.344Z,97103.81
2022-11-16T21:21:54.023Z,97092.06
2022-11-16T21:24:24.881Z,97044.00
2022-11-16T21:26:53.512Z,97042.19
2022-11-16T21:29:25.977Z,97097.28
2022-11-16T21:31:54.231Z,97069.50
2022-11-16T21:34:28.239Z,97076.66
2022-11-16T21:36:58.768Z,97053.16
2022-11-16T21:39:29.295Z,96992.00
2022-11-16T21:41:59.391Z,96993.91
2022-11-16T21:44:43.686Z,97019.03
2022-11-16T21:47:14.047Z,97017.53
2022-11-16T21:50:16.497Z,97020.78
2022-11-16T21:52:34.261Z,97078.47
2022-11-16T21:55:02.430Z,97071.53
2022-11-16T21:57:30.561Z,97079.75
2022-11-16T21:59:58.671Z,97025.25
2022-11-16T22:02:27.437Z,97052.06
2022-11-16T22:05:14.639Z,96999.44
2022-11-16T22:07:43.362Z,97066.00
2022-11-16T22:10:13.272Z,97076.38
2022-11-16T22:12:41.345Z,97069.00
2022-11-16T22:15:10.363Z,97041.47
2022-11-16T22:17:43.028Z,97039.88
2022-11-16T22:20:13.077Z,97019.34
2022-11-16T22:22:41.154Z,96996.72
2022-11-16T22:25:09.774Z,97014.81
2022-11-16T22:27:52.352Z,97025.09
2022-11-16T22:30:26.184Z,97031.38
2022-11-16T22:32:54.243Z,97039.78
2022-11-16T22:35:23.660Z,97002.59
2022-11-16T22:37:51.720Z,97011.78
2022-11-16T22:40:19.743Z,97003.69
2022-11-16T22:42:47.935Z,96979.53
2022-11-16T22:45:15.993Z,97008.75
2022-11-16T22:47:44.079Z,97004.91
2022-11-16T22:50:12.076Z,97015.31
2022-11-16T22:52:41.534Z,97004.44
2022-11-16T22:55:10.332Z,97000.72
2022-11-16T22:57:38.415Z,96969.13
2022-11-16T23:00:10.043Z,96962.19
2022-11-16T23:02:38.059Z,96988.69
2022-11-16T23:05:06.713Z,96991.91
2022-11-16T23:07:34.918Z,96992.66
2022-11-16T23:10:04.698Z,96930.50
2022-11-16T23:12:49.874Z,96996.16
2022-11-16T23:15:35.536Z,96988.34
2022-11-16T23:18:03.549Z,96993.50
2022-11-16T23:20:48.950Z,96947.00
2022-11-16T23:23:36.512Z,96945.53
2022-11-16T23:26:34.175Z,96952.69
2022-11-16T23:29:03.942Z,96939.25
2022-11-16T23:31:32.053Z,96938.63
2022-11-16T23:34:00.120Z,96953.59
2022-11-16T23:36:28.208Z,96956.53
2022-11-16T23:38:56.326Z,96950.22
2022-11-16T23:41:43.097Z,96916.53
2022-11-16T23:44:11.178Z,96940.75
2022-11-16T23:46:39.224Z,96859.84
2022-11-16T23:49:07.307Z,96927.00
2022-11-16T23:51:35.350Z,96902.22
2022-11-16T23:54:04.960Z,96908.06
2022-11-16T23:56:34.405Z,96927.66
2022-11-16T23:59:02.409Z,96927.97
